Time;durP1;ratioP1;P1;durP2;ratioP2;P2;SDS_P1;SDS_P2;PMS_P1;PMS_P2;Temp;Humidity;BMP_temperature;BMP_pressure;BME280_temperature;BME280_humidity;BME280_pressure;Samples;Min_cycle;Max_cycle;Signal;HPM_P1;HPM_P2
2023/12/30 00:02:17;;;;;;;11.90;5.43;;;8.70;99.90;;;;;;5045297;28;20028;-57
2023/12/30 00:04:43;;;;;;;13.82;5.32;;;8.80;99.90;;;;;;5044363;28;20207;-57
2023/12/30 15:11:17;;;;;;;27.95;12.70;;;6.60;1.00;;;;;;5082131;27;20461;-59
2023/12/30 15:13:43;;;;;;;33.35;16.35;;;6.50;35.40;;;;;;5071568;28;20102;-62
2023/12/30 15:16:08;;;;;;;35.83;19.77;;;6.50;99.90;;;;;;5075935;28;20036;-60
2023/12/30 15:18:34;;;;;;;36.25;17.23;;;6.50;99.90;;;;;;5073937;28;20025;-60
2023/12/30 15:21:00;;;;;;;48.80;21.30;;;6.50;99.90;;;;;;5065769;28;20079;-62
2023/12/30 15:23:26;;;;;;;74.57;32.28;;;6.50;99.90;;;;;;5067599;28;20033;-60
2023/12/30 15:25:52;;;;;;;69.78;30.67;;;6.40;99.90;;;;;;5082820;28;20872;-58
2023/12/30 15:28:17;;;;;;;64.53;31.25;;;6.50;99.90;;;;;;5081755;28;20111;-63
2023/12/30 15:30:43;;;;;;;69.32;31.95;;;6.50;99.90;;;;;;5075717;28;20055;-63
2023/12/30 15:33:09;;;;;;;73.22;33.47;;;6.50;99.90;;;;;;5079638;28;20037;-60
2023/12/30 15:35:34;;;;;;;81.18;37.30;;;6.50;99.90;;;;;;5070445;28;20027;-63
2023/12/30 15:38:00;;;;;;;80.20;38.00;;;6.50;99.90;;;;;;5071973;28;20103;-57
2023/12/30 15:40:26;;;;;;;79.03;36.92;;;6.50;99.90;;;;;;5072234;28;20070;-59
2023/12/30 15:42:52;;;;;;;76.28;37.35;;;6.50;99.90;;;;;;5072675;28;20033;-60
2023/12/30 15:45:20;;;;;;;76.33;37.33;;;6.50;99.90;;;;;;5073287;28;20020;-57
2023/12/30 15:47:47;;;;;;;74.50;35.58;;;6.50;99.90;;;;;;5071000;28;20070;-62
2023/12/30 15:50:13;;;;;;;75.35;38.42;;;6.50;1.00;;;;;;5082508;28;20040;-57
2023/12/30 15:52:38;;;;;;;53.25;25.77;;;6.50;99.90;;;;;;5082607;28;20047;-61
2023/12/30 15:55:05;;;;;;;45.72;22.05;;;6.60;6.70;;;;;;5076620;28;20059;-62
2023/12/30 15:57:31;;;;;;;39.80;17.73;;;6.60;99.90;;;;;;5068452;28;20024;-60
2023/12/30 15:59:57;;;;;;;33.47;15.63;;;6.70;99.90;;;;;;5069816;28;20048;-57
2023/12/30 16:02:23;;;;;;;35.13;15.00;;;6.80;99.90;;;;;;5071722;28;20025;-62
2023/12/30 16:04:49;;;;;;;27.13;13.02;;;6.80;99.90;;;;;;5070773;28;20765;-63
2023/12/30 16:07:15;;;;;;;30.33;13.65;;;6.90;99.90;;;;;;5072007;28;20029;-58
2023/12/30 16:09:41;;;;;;;27.23;12.98;;;6.90;99.90;;;;;;5072140;28;20074;-61
2023/12/30 16:12:09;;;;;;;25.92;10.77;;;6.90;99.90;;;;;;5070502;28;20039;-55
2023/12/30 16:14:35;;;;;;;24.50;10.63;;;6.90;99.90;;;;;;5071687;28;20497;-59
2023/12/30 16:17:01;;;;;;;29.15;12.70;;;6.90;99.90;;;;;;5072235;28;20484;-59
2023/12/30 16:19:27;;;;;;;32.25;15.02;;;6.80;99.90;;;;;;5070444;28;20035;-62
2023/12/30 16:21:52;;;;;;;52.53;25.23;;;6.80;99.90;;;;;;5062816;28;20033;-60
2023/12/30 16:24:18;;;;;;;64.28;30.45;;;6.80;99.90;;;;;;5058401;28;20774;-59
2023/12/30 16:26:44;;;;;;;59.15;31.40;;;6.80;99.90;;;;;;5059435;28;20021;-55
2023/12/30 16:29:10;;;;;;;72.80;35.10;;;6.70;99.90;;;;;;5060282;28;20047;-55
2023/12/30 16:31:36;;;;;;;75.43;35.00;;;6.80;99.90;;;;;;5058284;28;20746;-63
2023/12/30 16:34:02;;;;;;;70.70;35.53;;;6.80;99.90;;;;;;5059138;28;20035;-59
2023/12/30 16:36:28;;;;;;;66.38;31.25;;;6.90;99.90;;;;;;5054131;28;20526;-56
2023/12/30 16:38:55;;;;;;;54.53;28.13;;;6.90;99.90;;;;;;5056831;28;20029;-65
2023/12/30 16:41:22;;;;;;;;;;;6.90;99.90;;;;;;5057398;28;20025;-60
2023/12/30 16:43:48;;;;;;;64.35;30.50;;;6.80;99.90;;;;;;5050344;28;20010;-65
2023/12/30 16:46:14;;;;;;;50.25;24.15;;;6.90;99.90;;;;;;5058482;28;20429;-62
2023/12/30 16:48:40;;;;;;;41.22;21.20;;;6.90;99.90;;;;;;5067786;28;20079;-62
2023/12/30 16:51:05;;;;;;;53.42;23.60;;;6.90;99.90;;;;;;5083953;28;20066;-61
2023/12/30 16:53:31;;;;;;;56.83;23.80;;;6.90;99.90;;;;;;5068413;28;20714;-58
2023/12/30 16:55:59;;;;;;;44.67;21.77;;;7.00;99.90;;;;;;5068355;28;20775;-59
2023/12/30 16:58:25;;;;;;;47.97;22.38;;;6.90;99.90;;;;;;5068194;28;20033;-63
2023/12/30 17:00:52;;;;;;;46.93;24.80;;;6.80;99.90;;;;;;5067840;28;20131;-57
2023/12/30 17:03:18;;;;;;;41.25;19.50;;;6.90;99.90;;;;;;5068335;28;20350;-59
2023/12/30 17:05:43;;;;;;;44.05;21.80;;;6.90;99.90;;;;;;5067619;28;20566;-58
2023/12/30 17:08:09;;;;;;;43.47;22.70;;;7.00;99.90;;;;;;5067940;28;20753;-59
2023/12/30 17:10:35;;;;;;;46.55;23.30;;;7.00;99.90;;;;;;5067235;28;20125;-56
2023/12/30 17:13:01;;;;;;;50.05;22.48;;;7.00;99.90;;;;;;5067564;28;20365;-60
2023/12/30 17:15:26;;;;;;;55.60;25.48;;;7.00;99.90;;;;;;5067781;28;20031;-62
2023/12/30 17:17:52;;;;;;;69.00;29.30;;;6.90;99.90;;;;;;5067364;28;20512;-56
2023/12/30 17:20:18;;;;;;;68.72;28.35;;;7.00;99.90;;;;;;5055072;28;20033;-57
2023/12/30 17:22:43;;;;;;;76.63;32.40;;;7.00;99.90;;;;;;5053458;28;20028;-57
2023/12/30 17:25:09;;;;;;;81.25;36.08;;;6.90;99.90;;;;;;5052822;28;20035;-59
2023/12/30 17:27:35;;;;;;;76.75;35.00;;;6.90;99.90;;;;;;5055380;28;21866;-60
2023/12/30 17:30:05;;;;;;;72.22;31.63;;;6.80;99.90;;;;;;5059830;28;20041;-64
2023/12/30 17:32:31;;;;;;;63.55;28.88;;;6.80;99.90;;;;;;5048807;28;20029;-58
2023/12/30 17:34:57;;;;;;;59.88;28.67;;;6.90;99.90;;;;;;5055286;28;20035;-64
2023/12/30 17:37:22;;;;;;;52.03;25.10;;;6.90;99.90;;;;;;5056258;28;20071;-63
2023/12/30 17:39:48;;;;;;;49.25;25.10;;;6.90;99.90;;;;;;5050547;28;20029;-64
2023/12/30 17:42:14;;;;;;;50.30;24.33;;;6.90;99.90;;;;;;5032001;28;20040;-62
2023/12/30 17:44:40;;;;;;;52.85;25.17;;;6.90;99.90;;;;;;5051584;28;20087;-62
2023/12/30 17:47:05;;;;;;;58.90;25.60;;;6.90;99.90;;;;;;5052302;28;20071;-61
2023/12/30 17:49:31;;;;;;;57.65;27.77;;;6.90;99.90;;;;;;5046353;28;20073;-54
2023/12/30 17:51:57;;;;;;;57.50;28.10;;;6.90;99.90;;;;;;5046246;28;20051;-55
2023/12/30 17:54:23;;;;;;;52.92;27.02;;;6.80;99.90;;;;;;5046306;28;20033;-55
2023/12/30 17:56:49;;;;;;;36.25;17.80;;;6.70;99.90;;;;;;5048181;28;20036;-53
2023/12/30 17:59:14;;;;;;;26.17;11.68;;;6.60;99.90;;;;;;5048979;28;20124;-52
2023/12/30 18:01:40;;;;;;;15.77;7.03;;;6.60;99.90;;;;;;5046751;28;20626;-51
2023/12/30 18:04:06;;;;;;;12.02;5.38;;;6.40;99.90;;;;;;5049331;28;20025;-52
2023/12/30 18:06:33;;;;;;;16.25;6.13;;;6.40;99.90;;;;;;5056986;28;20020;-54
2023/12/30 18:08:59;;;;;;;16.93;6.37;;;6.40;99.90;;;;;;5055452;28;20024;-53
2023/12/30 18:11:25;;;;;;;17.55;7.57;;;6.40;99.90;;;;;;5050757;28;20256;-53
2023/12/30 18:13:50;;;;;;;14.20;7.22;;;6.30;99.90;;;;;;5061643;28;20548;-53
2023/12/30 18:16:16;;;;;;;18.63;6.28;;;6.20;99.90;;;;;;5056881;28;20021;-52
2023/12/30 18:18:41;;;;;;;8.82;4.00;;;6.10;99.90;;;;;;5055360;28;20040;-53
2023/12/30 18:21:07;;;;;;;7.55;2.13;;;6.10;99.90;;;;;;5058057;28;20103;-54
2023/12/30 18:23:33;;;;;;;16.42;6.28;;;6.00;99.90;;;;;;5050635;28;20036;-53
2023/12/30 18:25:59;;;;;;;26.85;9.88;;;6.00;99.90;;;;;;5055920;28;20021;-52
2023/12/30 18:28:24;;;;;;;25.67;8.15;;;5.90;99.90;;;;;;5048235;28;20037;-52
2023/12/30 18:30:50;;;;;;;11.48;4.68;;;6.00;99.90;;;;;;5047797;28;20124;-53
2023/12/30 18:33:16;;;;;;;6.60;3.20;;;6.00;99.90;;;;;;5048484;28;20029;-51
2023/12/30 18:35:41;;;;;;;5.90;2.40;;;6.00;99.90;;;;;;5049127;28;21132;-53
2023/12/30 18:38:07;;;;;;;6.55;2.97;;;6.00;99.90;;;;;;5065562;28;20097;-51
2023/12/30 18:40:34;;;;;;;10.98;3.67;;;6.00;99.90;;;;;;5055516;28;20029;-55
2023/12/30 18:43:00;;;;;;;13.57;4.80;;;6.00;99.90;;;;;;5053204;28;20415;-60
2023/12/30 18:45:27;;;;;;;10.95;4.82;;;6.10;99.90;;;;;;5055901;28;20033;-57
2023/12/30 18:47:53;;;;;;;6.93;3.42;;;6.10;99.90;;;;;;5053564;28;20036;-59
2023/12/30 18:50:18;;;;;;;12.38;4.70;;;6.10;99.90;;;;;;5045726;28;20060;-56
2023/12/30 18:52:46;;;;;;;12.77;4.72;;;6.10;99.90;;;;;;5045521;28;20029;-60
2023/12/30 18:55:11;;;;;;;13.45;5.28;;;6.10;99.90;;;;;;5044904;28;20062;-54
2023/12/30 18:57:37;;;;;;;15.45;5.82;;;6.10;99.90;;;;;;5057422;28;20024;-56
2023/12/30 19:00:05;;;;;;;17.35;6.97;;;6.10;99.90;;;;;;5032685;28;20029;-58
2023/12/30 19:02:31;;;;;;;30.75;11.60;;;6.10;99.90;;;;;;5025388;28;20036;-56
2023/12/30 19:04:56;;;;;;;21.25;9.70;;;6.10;99.90;;;;;;5025058;28;20037;-66
2023/12/30 19:07:22;;;;;;;22.52;9.23;;;6.00;99.90;;;;;;5025421;28;20373;-55
2023/12/30 19:09:48;;;;;;;10.05;5.18;;;6.00;99.90;;;;;;5024058;28;20053;-61
2023/12/30 19:12:13;;;;;;;13.80;4.82;;;5.90;99.90;;;;;;5024472;28;20021;-59
2023/12/30 19:14:39;;;;;;;11.68;5.32;;;5.90;99.90;;;;;;5023632;28;20542;-56
2023/12/30 19:17:05;;;;;;;14.93;5.28;;;5.80;99.90;;;;;;5024101;28;20664;-59
2023/12/30 19:19:31;;;;;;;17.70;6.25;;;5.80;99.90;;;;;;5024630;28;20029;-59
2023/12/30 19:21:57;;;;;;;15.05;6.30;;;5.80;99.90;;;;;;5024335;28;20452;-62
2023/12/30 19:24:22;;;;;;;13.98;6.97;;;5.70;99.90;;;;;;5040610;28;20137;-65
2023/12/30 19:26:49;;;;;;;16.27;7.18;;;5.70;99.90;;;;;;5043148;28;20582;-62
2023/12/30 19:29:19;;;;;;;16.52;7.75;;;5.70;99.90;;;;;;5045200;28;20064;-68
2023/12/30 19:31:45;;;;;;;18.88;8.20;;;5.60;99.90;;;;;;5044985;28;20516;-66
2023/12/30 19:34:11;;;;;;;22.42;10.23;;;5.60;99.90;;;;;;5044827;28;20115;-61
2023/12/30 19:36:38;;;;;;;36.10;16.90;;;5.50;99.90;;;;;;5044299;28;20124;-55
2023/12/30 19:39:04;;;;;;;40.38;18.15;;;5.40;99.90;;;;;;5045697;28;20056;-63
2023/12/30 19:41:37;;;;;;;51.43;22.37;;;5.30;99.90;;;;;;5045819;28;20044;-59
2023/12/30 19:44:04;;;;;;;56.97;27.02;;;5.40;99.90;;;;;;5042243;28;20087;-69
2023/12/30 19:46:30;;;;;;;68.75;30.63;;;5.40;99.90;;;;;;5050315;28;20036;-59
2023/12/30 19:48:56;;;;;;;71.05;31.23;;;5.40;99.90;;;;;;5056019;28;20033;-55
2023/12/30 19:51:22;;;;;;;67.03;29.70;;;5.40;99.90;;;;;;5051627;28;20483;-59
2023/12/30 19:53:49;;;;;;;59.35;27.75;;;5.40;99.90;;;;;;5053193;28;20479;-63
2023/12/30 19:56:14;;;;;;;57.42;26.95;;;5.40;99.90;;;;;;5056047;28;20046;-65
2023/12/30 19:58:40;;;;;;;50.90;25.35;;;5.40;99.90;;;;;;5055639;28;20025;-56
2023/12/30 20:01:06;;;;;;;63.75;27.80;;;5.50;99.90;;;;;;5056955;28;20383;-67
2023/12/30 20:03:31;;;;;;;66.78;27.88;;;5.50;99.90;;;;;;5058820;28;20082;-59
2023/12/30 20:05:57;;;;;;;57.20;26.80;;;5.50;99.90;;;;;;5060048;28;20048;-65
2023/12/30 20:08:23;;;;;;;58.13;27.50;;;5.50;99.90;;;;;;5069110;28;20506;-66
2023/12/30 20:10:48;;;;;;;67.82;31.52;;;5.50;99.90;;;;;;5068374;28;20052;-60
2023/12/30 20:13:14;;;;;;;72.75;32.83;;;5.50;99.90;;;;;;5068879;28;20521;-63
2023/12/30 20:15:40;;;;;;;70.70;31.80;;;5.60;99.90;;;;;;5069050;28;20144;-62
2023/12/30 20:18:06;;;;;;;68.65;30.48;;;5.60;99.90;;;;;;5059231;28;20029;-63
2023/12/30 20:20:31;;;;;;;60.13;29.63;;;5.60;99.90;;;;;;5058451;28;20369;-56
2023/12/30 20:22:59;;;;;;;52.83;22.80;;;5.60;99.90;;;;;;5058250;28;20475;-62
2023/12/30 20:25:25;;;;;;;53.80;23.30;;;5.60;99.90;;;;;;5057965;28;20115;-60
2023/12/30 20:27:50;;;;;;;45.67;19.73;;;5.60;99.90;;;;;;5052446;28;20109;-63
2023/12/30 20:30:16;;;;;;;34.05;17.27;;;5.60;99.90;;;;;;5056172;28;20432;-58
2023/12/30 20:32:42;;;;;;;34.17;16.80;;;5.60;99.90;;;;;;5057070;28;20498;-57
2023/12/30 20:35:08;;;;;;;29.90;14.52;;;5.60;99.90;;;;;;5055865;28;20098;-57
2023/12/30 20:37:33;;;;;;;28.80;14.48;;;5.70;99.90;;;;;;5053248;28;20087;-64
2023/12/30 20:39:59;;;;;;;26.05;12.65;;;5.60;99.90;;;;;;5058675;28;20028;-69
2023/12/30 20:42:27;;;;;;;19.52;9.95;;;5.70;99.90;;;;;;5057879;28;20456;-55
2023/12/30 20:44:53;;;;;;;20.98;9.38;;;5.80;99.90;;;;;;5064588;28;20139;-59
2023/12/30 20:47:20;;;;;;;16.23;8.43;;;5.80;99.90;;;;;;5068037;28;20035;-59
2023/12/30 20:49:46;;;;;;;21.38;10.52;;;5.80;99.90;;;;;;5065363;28;20097;-58
2023/12/30 20:52:13;;;;;;;18.30;8.20;;;5.90;99.90;;;;;;5055528;28;20040;-63
2023/12/30 20:54:42;;;;;;;23.23;9.17;;;5.90;99.90;;;;;;5057206;28;20120;-50
2023/12/30 20:57:08;;;;;;;23.73;9.63;;;6.00;99.90;;;;;;5057027;28;20501;-55
2023/12/30 20:59:33;;;;;;;19.75;8.20;;;6.00;99.90;;;;;;5058485;28;20025;-51
2023/12/30 21:02:00;;;;;;;22.80;8.68;;;6.10;99.90;;;;;;5051016;28;20029;-52
2023/12/30 21:04:26;;;;;;;23.98;10.48;;;6.10;99.90;;;;;;5038463;28;20047;-54
2023/12/30 21:06:52;;;;;;;18.45;8.10;;;6.10;99.90;;;;;;5056308;28;20028;-55
2023/12/30 21:09:17;;;;;;;20.88;8.88;;;6.10;99.90;;;;;;5057423;28;20052;-54
2023/12/30 21:11:44;;;;;;;39.53;14.38;;;6.10;99.90;;;;;;5055668;28;20191;-56
2023/12/30 21:14:10;;;;;;;36.90;15.88;;;6.20;99.90;;;;;;5057127;28;20146;-58
2023/12/30 21:16:36;;;;;;;39.00;14.95;;;6.10;99.90;;;;;;5057165;28;20468;-57
2023/12/30 21:19:01;;;;;;;35.55;12.95;;;6.20;99.90;;;;;;5055886;28;20681;-54
2023/12/30 21:21:27;;;;;;;32.10;14.27;;;6.20;99.90;;;;;;5060251;28;20027;-60
2023/12/30 21:23:53;;;;;;;27.90;13.65;;;6.20;99.90;;;;;;5059407;28;20021;-57
2023/12/30 21:26:22;;;;;;;26.38;12.05;;;6.20;99.90;;;;;;5057156;28;20032;-57
2023/12/30 21:28:48;;;;;;;38.03;14.93;;;6.20;99.90;;;;;;5052008;28;20041;-58
2023/12/30 21:31:14;;;;;;;26.75;11.98;;;6.10;99.90;;;;;;5055756;28;20085;-56
2023/12/30 21:33:40;;;;;;;15.73;7.55;;;6.10;99.90;;;;;;5057611;28;20040;-55
2023/12/30 21:36:06;;;;;;;23.58;10.45;;;6.10;99.90;;;;;;5056243;28;20044;-61
2023/12/30 21:38:37;;;;;;;78.60;25.48;;;6.10;99.90;;;;;;5055452;28;20126;-58
2023/12/30 21:41:06;;;;;;;77.53;24.58;;;6.00;99.90;;;;;;5054502;28;20021;-53
2023/12/30 21:43:32;;;;;;;59.75;18.10;;;6.00;99.90;;;;;;5056542;28;20387;-63
2023/12/30 21:45:59;;;;;;;38.78;13.20;;;6.00;99.90;;;;;;5054993;28;20164;-63
2023/12/30 21:48:24;;;;;;;30.20;10.50;;;6.00;99.90;;;;;;5060899;28;20439;-55
2023/12/30 21:50:50;;;;;;;28.92;10.57;;;6.00;99.90;;;;;;5055091;28;20106;-58
2023/12/30 21:53:15;;;;;;;30.70;11.65;;;6.10;99.90;;;;;;5049461;28;20056;-60
2023/12/30 21:55:42;;;;;;;22.17;8.75;;;6.10;99.90;;;;;;5058672;28;20535;-60
2023/12/30 21:58:08;;;;;;;15.17;7.17;;;6.10;99.90;;;;;;5062153;28;20027;-57
2023/12/30 22:00:34;;;;;;;17.30;7.53;;;6.10;99.90;;;;;;5039513;28;20275;-61
2023/12/30 22:02:59;;;;;;;24.80;11.05;;;6.20;99.90;;;;;;5061413;28;20032;-57
2023/12/30 22:05:25;;;;;;;24.60;11.20;;;6.20;99.90;;;;;;5061680;28;20029;-64
2023/12/30 22:07:51;;;;;;;18.33;8.45;;;6.20;99.90;;;;;;5052493;28;20117;-62
2023/12/30 22:10:17;;;;;;;15.45;8.57;;;6.20;99.90;;;;;;5046388;28;20412;-60
2023/12/30 22:12:43;;;;;;;25.13;11.90;;;6.20;99.90;;;;;;5052004;28;20036;-64
2023/12/30 22:15:08;;;;;;;31.27;14.18;;;6.20;99.90;;;;;;5046334;28;20021;-56
2023/12/30 22:17:34;;;;;;;41.90;19.02;;;6.20;99.90;;;;;;5046761;28;20025;-65
2023/12/30 22:20:00;;;;;;;38.75;16.75;;;6.10;99.90;;;;;;5044198;28;20029;-62
2023/12/30 22:22:26;;;;;;;32.83;16.77;;;6.10;99.90;;;;;;5047002;28;20461;-56
2023/12/30 22:24:53;;;;;;;38.08;16.67;;;6.10;99.90;;;;;;5057861;28;20111;-64
2023/12/30 22:27:20;;;;;;;38.73;19.63;;;6.00;99.90;;;;;;5061738;28;20032;-57
2023/12/30 22:29:45;;;;;;;39.10;19.55;;;6.00;99.90;;;;;;5062223;28;20033;-56
2023/12/30 22:32:11;;;;;;;36.40;18.42;;;6.00;99.90;;;;;;5056392;28;20654;-64
2023/12/30 22:34:37;;;;;;;36.45;16.98;;;6.00;99.90;;;;;;5055394;28;20028;-59
2023/12/30 22:37:03;;;;;;;65.20;26.25;;;5.90;99.90;;;;;;5058459;28;20060;-64
2023/12/30 22:39:28;;;;;;;57.60;23.30;;;5.90;99.90;;;;;;5054225;28;20025;-62
2023/12/30 22:41:54;;;;;;;53.78;22.50;;;5.80;99.90;;;;;;5054972;28;20021;-71
2023/12/30 22:44:19;;;;;;;39.28;18.75;;;5.70;99.90;;;;;;5052316;28;20041;-61
2023/12/30 22:46:45;;;;;;;29.13;13.40;;;5.60;99.90;;;;;;5053572;28;20028;-59
2023/12/30 22:49:11;;;;;;;55.22;21.05;;;5.40;99.90;;;;;;5058695;28;20067;-64
2023/12/30 22:51:45;;;;;;;58.40;26.00;;;5.30;99.90;;;;;;5057256;28;20024;-60
2023/12/30 22:54:11;;;;;;;67.00;28.17;;;5.30;99.90;;;;;;5052250;28;20044;-64
2023/12/30 22:56:36;;;;;;;65.43;27.70;;;5.20;99.90;;;;;;5050265;28;20025;-60
2023/12/30 22:59:02;;;;;;;58.92;26.75;;;5.20;99.90;;;;;;5046621;28;20025;-61
2023/12/30 23:01:28;;;;;;;55.58;24.65;;;5.20;99.90;;;;;;5046868;28;20029;-58
2023/12/30 23:03:53;;;;;;;50.03;22.08;;;5.10;99.90;;;;;;5050129;28;20025;-58
2023/12/30 23:06:19;;;;;;;43.15;20.67;;;5.10;99.90;;;;;;5051074;28;20102;-63
2023/12/30 23:08:45;;;;;;;40.30;18.50;;;5.00;99.90;;;;;;5045643;28;20547;-67
2023/12/30 23:11:11;;;;;;;36.15;18.77;;;4.90;99.90;;;;;;5044681;28;20063;-58
2023/12/30 23:13:36;;;;;;;41.30;20.73;;;4.80;99.90;;;;;;5045425;28;20021;-62
2023/12/30 23:16:02;;;;;;;36.80;19.35;;;4.70;99.90;;;;;;5045487;28;20115;-62
2023/12/30 23:18:28;;;;;;;39.47;19.60;;;4.60;99.90;;;;;;5044116;28;20025;-62
2023/12/30 23:20:54;;;;;;;72.20;28.48;;;4.70;99.90;;;;;;5043664;28;20178;-59
2023/12/30 23:23:20;;;;;;;66.68;28.00;;;4.80;99.90;;;;;;5044542;28;20049;-60
2023/12/30 23:25:45;;;;;;;59.50;26.45;;;4.90;99.90;;;;;;5044794;28;20029;-56
2023/12/30 23:28:11;;;;;;;51.33;23.33;;;4.80;99.90;;;;;;5045149;28;20029;-63
2023/12/30 23:30:37;;;;;;;52.42;23.85;;;4.90;99.90;;;;;;5044034;28;20048;-61
2023/12/30 23:33:03;;;;;;;44.08;21.92;;;4.90;99.90;;;;;;5048374;28;20475;-60
2023/12/30 23:35:28;;;;;;;38.97;19.95;;;4.80;99.90;;;;;;5048560;28;20031;-58
2023/12/30 23:37:54;;;;;;;50.50;22.52;;;4.80;99.90;;;;;;5048551;28;20029;-54
2023/12/30 23:40:19;;;;;;;56.42;22.67;;;4.70;99.90;;;;;;5048299;28;20032;-62
2023/12/30 23:42:45;;;;;;;46.35;20.92;;;4.70;99.90;;;;;;5048307;28;20027;-60
